createdAt,value
2023-01-13T00:01:17.469Z,100096.41
2023-01-13T00:03:43.816Z,100098.41
2023-01-13T00:06:10.181Z,100097.63
2023-01-13T00:08:36.566Z,100104.75
2023-01-13T00:11:02.940Z,100098.41
2023-01-13T00:16:23.027Z,100098.38
2023-01-13T00:18:49.488Z,100093.63
2023-01-13T00:21:15.850Z,100096.00
2023-01-13T00:23:42.256Z,100096.78
2023-01-13T00:26:09.501Z,100100.38
2023-01-13T00:31:29.816Z,100094.44
2023-01-13T00:33:56.299Z,100089.75
2023-01-13T00:36:22.728Z,100088.91
2023-01-13T00:38:49.105Z,100079.78
2023-01-13T00:41:15.488Z,100082.50
2023-01-13T00:46:25.990Z,100083.38
2023-01-13T00:48:52.398Z,100082.50
2023-01-13T00:51:18.995Z,100088.06
2023-01-13T00:53:45.426Z,100086.47
2023-01-13T00:56:12.667Z,100084.50
2023-01-13T01:01:33.049Z,100091.25
2023-01-13T01:03:59.571Z,100085.72
2023-01-13T01:06:25.952Z,100085.25
2023-01-13T01:08:52.343Z,100077.38
2023-01-13T01:11:19.562Z,100080.13
2023-01-13T01:16:29.742Z,100063.91
2023-01-13T01:18:56.161Z,100057.06
2023-01-13T01:21:22.561Z,100055.09
2023-01-13T01:23:48.920Z,100053.09
2023-01-13T01:26:15.323Z,100054.28
2023-01-13T01:31:35.648Z,100054.69
2023-01-13T01:34:02.099Z,100055.50
2023-01-13T01:36:28.590Z,100043.22
2023-01-13T01:38:54.984Z,100036.00
2023-01-13T01:41:21.359Z,100042.78
2023-01-13T01:46:42.284Z,100024.91
2023-01-13T01:49:08.719Z,100026.09
2023-01-13T01:51:35.074Z,100023.28
2023-01-13T01:54:01.457Z,100017.75
2023-01-13T01:56:27.830Z,100017.72
2023-01-13T02:01:48.239Z,100007.06
2023-01-13T02:04:15.591Z,100009.41
2023-01-13T02:06:41.943Z,100006.19
2023-01-13T02:09:08.269Z,100006.97
2023-01-13T02:11:34.707Z,100001.41
2023-01-13T02:16:45.001Z,99993.06
2023-01-13T02:19:12.282Z,99991.09
2023-01-13T02:21:38.659Z,99990.31
2023-01-13T02:24:05.065Z,99997.47
2023-01-13T02:26:31.441Z,99990.69
2023-01-13T02:31:51.869Z,99995.06
2023-01-13T02:34:18.275Z,99992.69
2023-01-13T02:36:44.620Z,99988.34
2023-01-13T02:39:11.060Z,99984.34
2023-01-13T02:41:37.439Z,99978.06
2023-01-13T02:46:47.769Z,99978.78
2023-01-13T02:49:14.232Z,99979.19
2023-01-13T02:51:40.582Z,99990.28
2023-01-13T02:54:06.963Z,99979.97
2023-01-13T02:56:33.335Z,99981.53
2023-01-13T02:58:59.693Z,99973.59
2023-01-13T03:01:26.139Z,99967.25
2023-01-13T03:03:52.603Z,99969.25
2023-01-13T03:06:18.977Z,99967.28
2023-01-13T03:08:45.292Z,99964.94
2023-01-13T03:11:11.722Z,99962.16
2023-01-13T03:13:38.092Z,99956.13
2023-01-13T03:16:04.469Z,99949.81
2023-01-13T03:18:30.816Z,99956.94
2023-01-13T03:20:57.160Z,99955.44
2023-01-13T03:23:23.518Z,99961.38
2023-01-13T03:25:49.867Z,99956.22
2023-01-13T03:28:16.217Z,99960.94
2023-01-13T03:30:42.600Z,99951.78
2023-01-13T03:33:09.071Z,99955.81
2023-01-13T03:35:35.407Z,99952.59
2023-01-13T03:38:01.752Z,99948.97
2023-01-13T03:40:28.066Z,99950.19
2023-01-13T03:42:54.420Z,99945.41
2023-01-13T03:45:20.750Z,99947.00
2023-01-13T03:47:47.092Z,99948.19
2023-01-13T03:50:13.425Z,99948.56
2023-01-13T03:52:39.768Z,99943.84
2023-01-13T03:55:06.142Z,99945.00
2023-01-13T03:57:32.496Z,99947.00
2023-01-13T03:59:58.884Z,99947.78
2023-01-13T04:05:09.301Z,99942.63
2023-01-13T04:07:35.652Z,99945.41
2023-01-13T04:10:02.214Z,99953.03
2023-01-13T04:12:28.642Z,99944.69
2023-01-13T04:14:54.997Z,99937.91
2023-01-13T04:20:15.408Z,99935.56
2023-01-13T04:22:41.757Z,99941.06
2023-01-13T04:25:08.077Z,99933.13
2023-01-13T04:27:34.486Z,99933.88
2023-01-13T04:30:00.829Z,99934.69
2023-01-13T04:35:10.930Z,99925.56
2023-01-13T04:37:37.284Z,99927.56
2023-01-13T04:40:03.680Z,99933.91
2023-01-13T04:42:30.007Z,99928.00
2023-01-13T04:44:56.348Z,99928.00
2023-01-13T04:50:16.410Z,99932.28
2023-01-13T04:52:42.818Z,99927.56
2023-01-13T04:55:09.178Z,99926.34
2023-01-13T04:57:35.503Z,99928.34
2023-01-13T05:00:01.839Z,99925.56
2023-01-13T05:05:12.303Z,99936.28
2023-01-13T05:07:38.646Z,99930.31
2023-01-13T05:10:05.046Z,99920.38
2023-01-13T05:12:31.389Z,99932.72
2023-01-13T05:14:57.733Z,99921.59
2023-01-13T05:20:17.909Z,99924.34
2023-01-13T05:22:44.268Z,99922.75
2023-01-13T05:25:10.616Z,99931.09
2023-01-13T05:27:36.940Z,99933.13
2023-01-13T05:30:03.301Z,99922.44
2023-01-13T05:35:13.614Z,99924.22
2023-01-13T05:37:40.000Z,99926.19
2023-01-13T05:40:06.438Z,99929.66
2023-01-13T05:42:32.775Z,99924.13
2023-01-13T05:44:59.128Z,99930.06
2023-01-13T05:50:21.577Z,99934.75
2023-01-13T05:52:48.000Z,99932.84
2023-01-13T05:55:15.317Z,99935.44
2023-01-13T05:57:42.553Z,99927.16
2023-01-13T06:00:09.919Z,99935.88
2023-01-13T06:05:30.657Z,99945.03
2023-01-13T06:07:57.217Z,99940.34
2023-01-13T06:10:23.620Z,99944.97
2023-01-13T06:12:50.889Z,99945.63
2023-01-13T06:15:17.281Z,99950.16
2023-01-13T06:20:28.908Z,99958.03
2023-01-13T06:22:55.319Z,99952.53
2023-01-13T06:25:22.559Z,99954.16
2023-01-13T06:27:50.845Z,99942.31
2023-01-13T06:30:17.518Z,99948.59
2023-01-13T06:35:42.021Z,99949.38
2023-01-13T06:38:09.350Z,99948.53
2023-01-13T06:40:36.688Z,99951.91
2023-01-13T06:43:03.946Z,99955.81
2023-01-13T06:45:30.541Z,99953.84
2023-01-13T06:50:43.334Z,99967.59
2023-01-13T06:53:12.819Z,99963.59
2023-01-13T06:55:40.552Z,99965.19
2023-01-13T06:58:08.132Z,99969.16
2023-01-13T07:00:34.620Z,99961.38
2023-01-13T07:05:55.993Z,99961.59
2023-01-13T07:08:22.454Z,99955.63
2023-01-13T07:10:48.900Z,99961.19
2023-01-13T07:13:16.385Z,99962.00
2023-01-13T07:15:42.846Z,99960.53
2023-01-13T07:20:53.162Z,99962.56
2023-01-13T07:23:19.611Z,99956.22
2023-01-13T07:25:46.079Z,99960.22
2023-01-13T07:28:13.411Z,99963.31
2023-01-13T07:30:39.827Z,99965.38
2023-01-13T07:33:07.142Z,99963.38
2023-01-13T07:35:34.379Z,99963.47
2023-01-13T07:38:01.686Z,99966.16
2023-01-13T07:40:29.043Z,99964.69
2023-01-13T07:42:55.507Z,99960.53
2023-01-13T07:45:21.934Z,99956.63
2023-01-13T07:47:48.387Z,99963.00
2023-01-13T07:50:15.750Z,99958.94
2023-01-13T07:52:42.166Z,99959.78
2023-01-13T07:55:09.663Z,99962.47
2023-01-13T07:57:36.090Z,99959.72
2023-01-13T08:00:03.951Z,99966.50
2023-01-13T08:02:30.532Z,99963.28
2023-01-13T08:04:57.940Z,99962.91
2023-01-13T08:07:24.472Z,99959.22
2023-01-13T08:09:50.898Z,99957.72
2023-01-13T08:12:17.309Z,99959.59
2023-01-13T08:14:43.815Z,99958.16
2023-01-13T08:17:11.158Z,99959.63
2023-01-13T08:19:37.622Z,99966.50
2023-01-13T08:22:05.960Z,99964.00
2023-01-13T08:24:33.220Z,99967.19
2023-01-13T08:27:01.576Z,99961.63
2023-01-13T08:29:30.765Z,99971.88
2023-01-13T08:31:58.021Z,99970.75
2023-01-13T08:34:26.314Z,99970.25
2023-01-13T08:36:53.577Z,99969.94
2023-01-13T08:39:20.058Z,99966.63
2023-01-13T08:41:48.364Z,99961.53
2023-01-13T08:44:14.846Z,99971.09
2023-01-13T08:46:41.358Z,99971.84
2023-01-13T08:49:07.790Z,99972.41
2023-01-13T08:54:19.836Z,99974.50
2023-01-13T08:56:46.342Z,99978.09
2023-01-13T08:59:14.677Z,99976.13
2023-01-13T09:01:41.219Z,99969.03
2023-01-13T09:04:07.901Z,99984.09
2023-01-13T09:09:21.020Z,99988.03
2023-01-13T09:11:48.281Z,99978.56
2023-01-13T09:14:14.661Z,99981.81
2023-01-13T09:16:41.154Z,99968.38
2023-01-13T09:19:08.413Z,99971.81
2023-01-13T09:24:29.731Z,99967.84
2023-01-13T09:26:56.163Z,99967.94
2023-01-13T09:29:23.410Z,99965.84
2023-01-13T09:31:49.961Z,99968.28
2023-01-13T09:34:17.237Z,99969.53
2023-01-13T09:39:28.301Z,99961.97
2023-01-13T09:41:54.732Z,99970.34
2023-01-13T09:44:21.176Z,99954.41
2023-01-13T09:46:47.648Z,99954.06
2023-01-13T09:49:14.338Z,99957.53
2023-01-13T09:54:26.285Z,99954.41
2023-01-13T09:56:53.530Z,99955.53
2023-01-13T09:59:19.964Z,99954.97
2023-01-13T10:01:46.403Z,99955.75
2023-01-13T10:04:13.697Z,99955.81
2023-01-13T10:09:34.905Z,99950.69
2023-01-13T10:12:01.395Z,99941.19
2023-01-13T10:14:28.667Z,99945.88
2023-01-13T10:16:55.189Z,99947.13
2023-01-13T10:19:22.454Z,99945.13
2023-01-13T10:24:43.758Z,99929.66
2023-01-13T10:27:10.401Z,99931.69
2023-01-13T10:29:37.665Z,99923.75
2023-01-13T10:32:04.967Z,99928.53
2023-01-13T10:34:32.256Z,99921.75
2023-01-13T10:39:43.373Z,99918.97
2023-01-13T10:42:10.639Z,99915.31
2023-01-13T10:44:37.094Z,99922.88
2023-01-13T10:47:04.381Z,99918.88
2023-01-13T10:49:30.851Z,99919.34
2023-01-13T10:54:41.525Z,99916.56
2023-01-13T10:57:08.834Z,99909.81
2023-01-13T10:59:36.192Z,99909.41
2023-01-13T11:02:10.199Z,99915.00
2023-01-13T11:04:47.161Z,99916.56
2023-01-13T11:09:58.551Z,99909.00
2023-01-13T11:12:25.018Z,99896.63
2023-01-13T11:14:52.361Z,99899.47
2023-01-13T11:17:19.748Z,99902.66
2023-01-13T11:19:47.177Z,99905.28
2023-01-13T11:24:57.855Z,99906.66
2023-01-13T11:27:25.231Z,99899.03
2023-01-13T11:29:52.587Z,99902.28
2023-01-13T11:32:20.025Z,99901.09
2023-01-13T11:34:46.491Z,99895.34
2023-01-13T11:39:56.809Z,99897.41
2023-01-13T11:42:23.371Z,99893.84
2023-01-13T11:44:49.854Z,99893.34
2023-01-13T11:47:17.246Z,99887.06
2023-01-13T11:49:43.729Z,99884.59
2023-01-13T11:54:55.196Z,99887.97
2023-01-13T11:57:22.615Z,99878.38
2023-01-13T11:59:49.995Z,99880.75
2023-01-13T12:02:17.483Z,99881.22
2023-01-13T12:04:44.073Z,99878.78
2023-01-13T12:07:11.499Z,99871.69
2023-01-13T12:09:37.963Z,99877.19
2023-01-13T12:12:05.353Z,99884.72
2023-01-13T12:14:31.811Z,99874.88
2023-01-13T12:17:01.122Z,99884.81
2023-01-13T12:19:27.837Z,99876.88
2023-01-13T12:21:54.320Z,99878.78
2023-01-13T12:24:20.770Z,99875.47
2023-01-13T12:26:47.270Z,99883.53
2023-01-13T12:29:13.709Z,99882.84
2023-01-13T12:31:40.197Z,99880.22
2023-01-13T12:34:07.613Z,99878.38
2023-01-13T12:36:36.105Z,99876.47
2023-01-13T12:39:04.529Z,99877.78
2023-01-13T12:41:32.862Z,99875.16
2023-01-13T12:44:01.182Z,99872.78
2023-01-13T12:46:29.427Z,99878.75
2023-01-13T12:48:57.705Z,99874.03
2023-01-13T12:51:24.208Z,99876.03
2023-01-13T12:53:51.688Z,99875.66
2023-01-13T12:56:19.167Z,99876.84
2023-01-13T12:58:45.659Z,99868.53
2023-01-13T13:01:13.189Z,99879.28
2023-01-13T13:03:39.760Z,99873.66
2023-01-13T13:06:07.209Z,99877.66
2023-01-13T13:08:34.637Z,99880.47
2023-01-13T13:11:02.088Z,99876.09
2023-01-13T13:13:28.613Z,99877.75
2023-01-13T13:15:55.089Z,99876.53
2023-01-13T13:18:21.570Z,99879.69
2023-01-13T13:20:48.151Z,99878.97
2023-01-13T13:23:15.564Z,99881.38
2023-01-13T13:28:26.040Z,99894.47
2023-01-13T13:30:52.533Z,99891.69
2023-01-13T13:33:20.020Z,99890.91
2023-01-13T13:35:47.425Z,99889.72
2023-01-13T13:38:15.728Z,99882.94
2023-01-13T13:43:37.362Z,99892.41
2023-01-13T13:46:03.890Z,99896.38
2023-01-13T13:48:30.428Z,99889.63
2023-01-13T13:50:57.208Z,99891.19
2023-01-13T13:53:24.687Z,99894.75
2023-01-13T13:58:45.398Z,99897.91
2023-01-13T14:01:11.978Z,99899.09
2023-01-13T14:03:40.309Z,99907.09
2023-01-13T14:06:07.790Z,99906.22
2023-01-13T14:08:34.287Z,99902.78
2023-01-13T14:13:55.896Z,99904.84
2023-01-13T14:16:22.376Z,99904.16
2023-01-13T14:18:48.840Z,99906.94
2023-01-13T14:21:16.534Z,99902.97
2023-01-13T14:23:43.010Z,99905.78
2023-01-13T14:28:54.462Z,99911.00
2023-01-13T14:31:20.987Z,99913.38
2023-01-13T14:33:47.493Z,99906.25
2023-01-13T14:36:13.958Z,99905.41
2023-01-13T14:38:41.371Z,99895.91
2023-01-13T14:43:52.662Z,99905.38
2023-01-13T14:46:20.013Z,99910.97
2023-01-13T14:48:47.299Z,99910.16
2023-01-13T14:51:13.757Z,99901.00
2023-01-13T14:53:40.183Z,99912.53
2023-01-13T14:59:02.621Z,99914.94
2023-01-13T15:01:29.324Z,99918.16
2023-01-13T15:03:57.775Z,99914.66
2023-01-13T15:06:24.225Z,99907.06
2023-01-13T15:08:51.502Z,99908.59
2023-01-13T15:14:02.722Z,99911.41
2023-01-13T15:16:29.228Z,99912.63
2023-01-13T15:18:57.550Z,99910.66
2023-01-13T15:21:27.536Z,99903.09
2023-01-13T15:23:54.792Z,99904.28
2023-01-13T15:29:15.478Z,99896.91
2023-01-13T15:31:44.681Z,99900.91
2023-01-13T15:34:13.251Z,99896.09
2023-01-13T15:36:39.692Z,99902.53
2023-01-13T15:39:08.004Z,99903.34
2023-01-13T15:44:29.186Z,99897.78
2023-01-13T15:46:57.616Z,99894.59
2023-01-13T15:49:24.002Z,99892.28
2023-01-13T15:51:53.957Z,99896.19
2023-01-13T15:54:20.451Z,99895.03
2023-01-13T15:59:34.632Z,99906.16
2023-01-13T16:02:02.905Z,99901.00
2023-01-13T16:04:29.336Z,99907.75
2023-01-13T16:06:55.812Z,99903.38
2023-01-13T16:09:25.172Z,99908.94
2023-01-13T16:14:35.674Z,99906.16
2023-01-13T16:17:02.158Z,99907.41
2023-01-13T16:19:30.471Z,99915.34
2023-01-13T16:21:56.945Z,99911.38
2023-01-13T16:24:26.127Z,99914.53
2023-01-13T16:29:49.535Z,99918.53
2023-01-13T16:32:16.141Z,99918.94
2023-01-13T16:34:45.335Z,99932.06
2023-01-13T16:37:13.650Z,99932.84
2023-01-13T16:39:41.920Z,99928.44
2023-01-13T16:44:54.073Z,99917.81
2023-01-13T16:47:22.393Z,99908.69
2023-01-13T16:49:49.874Z,99921.41
2023-01-13T16:52:18.138Z,99917.81
2023-01-13T16:54:45.411Z,99914.22
2023-01-13T17:00:06.148Z,99914.97
2023-01-13T17:02:32.579Z,99923.75
2023-01-13T17:04:59.012Z,99914.19
2023-01-13T17:07:25.437Z,99919.75
2023-01-13T17:09:51.886Z,99915.78
2023-01-13T17:15:04.021Z,99926.91
2023-01-13T17:17:33.208Z,99922.16
2023-01-13T17:19:59.913Z,99934.41
2023-01-13T17:22:26.444Z,99928.06
2023-01-13T17:24:54.761Z,99934.03
2023-01-13T17:30:15.350Z,99931.84
2023-01-13T17:32:41.846Z,99936.59
2023-01-13T17:35:08.287Z,99936.91
2023-01-13T17:37:35.669Z,99934.13
2023-01-13T17:40:02.977Z,99936.41
2023-01-13T17:45:14.290Z,99949.94
2023-01-13T17:47:43.464Z,99941.59
2023-01-13T17:50:10.115Z,99948.38
2023-01-13T17:52:36.618Z,99942.09
2023-01-13T17:55:03.078Z,99951.56
2023-01-13T17:57:29.580Z,99945.97
2023-01-13T17:59:55.940Z,99948.38
2023-01-13T18:02:22.642Z,99947.09
2023-01-13T18:04:49.163Z,99948.78
2023-01-13T18:07:15.550Z,99959.84
2023-01-13T18:09:41.915Z,99948.00
2023-01-13T18:12:09.196Z,99948.34
2023-01-13T18:14:36.771Z,99939.19
2023-01-13T18:17:03.272Z,99947.59
2023-01-13T18:19:29.905Z,99949.91
2023-01-13T18:21:56.338Z,99951.19
2023-01-13T18:24:22.766Z,99952.56
2023-01-13T18:26:49.119Z,99937.94
2023-01-13T18:29:15.487Z,99945.38
2023-01-13T18:31:41.804Z,99939.69
2023-01-13T18:34:08.158Z,99944.84
2023-01-13T18:36:34.529Z,99955.09
2023-01-13T18:39:00.874Z,99945.47
2023-01-13T18:41:27.226Z,99950.25
2023-01-13T18:43:53.596Z,99949.34
2023-01-13T18:46:19.957Z,99954.53
2023-01-13T18:48:46.355Z,99952.13
2023-01-13T18:51:12.869Z,99954.84
2023-01-13T18:53:39.218Z,99962.81
2023-01-13T18:56:05.577Z,99969.94
2023-01-13T18:58:31.953Z,99966.75
2023-01-13T19:00:58.356Z,99974.28
2023-01-13T19:03:29.935Z,99972.66
2023-01-13T19:05:57.004Z,99975.81
2023-01-13T19:08:23.360Z,99977.78
2023-01-13T19:10:49.737Z,99966.66
2023-01-13T19:13:16.083Z,99979.75
2023-01-13T19:18:36.644Z,99976.41
2023-01-13T19:21:03.202Z,99985.47
2023-01-13T19:23:29.825Z,99990.94
2023-01-13T19:25:56.169Z,99986.94
2023-01-13T19:28:22.538Z,99995.28
2023-01-13T19:33:32.904Z,99990.03
2023-01-13T19:35:59.230Z,99991.25
2023-01-13T19:38:25.574Z,99980.13
2023-01-13T19:40:51.919Z,99989.66
2023-01-13T19:43:19.122Z,99993.22
2023-01-13T19:48:29.518Z,99999.50
2023-01-13T19:50:55.842Z,99998.31
2023-01-13T19:53:22.349Z,99997.97
2023-01-13T19:55:48.677Z,100006.72
2023-01-13T19:58:15.016Z,100008.66
2023-01-13T20:03:35.666Z,100010.94
2023-01-13T20:06:02.022Z,100013.00
2023-01-13T20:08:28.362Z,100023.28
2023-01-13T20:10:54.722Z,100020.94
2023-01-13T20:13:21.088Z,100024.91
2023-01-13T20:18:41.213Z,100023.72
2023-01-13T20:21:07.772Z,100028.81
2023-01-13T20:23:34.131Z,100039.06
2023-01-13T20:26:00.472Z,100035.47
2023-01-13T20:28:26.811Z,100038.66
2023-01-13T20:33:37.184Z,100038.66
2023-01-13T20:36:03.500Z,100040.56
2023-01-13T20:38:29.873Z,100040.94
2023-01-13T20:40:58.964Z,100035.78
2023-01-13T20:43:25.329Z,100047.28
2023-01-13T20:48:35.510Z,100052.47
2023-01-13T20:51:01.840Z,100056.81
2023-01-13T20:53:28.183Z,100053.19
2023-01-13T20:55:54.539Z,100063.56
2023-01-13T20:58:20.902Z,100068.28
2023-01-13T21:03:41.357Z,100067.06
2023-01-13T21:06:07.901Z,100067.41
2023-01-13T21:08:34.238Z,100065.00
2023-01-13T21:11:00.513Z,100067.84
2023-01-13T21:13:27.970Z,100073.44
2023-01-13T21:18:38.426Z,100075.84
2023-01-13T21:21:04.773Z,100071.53
2023-01-13T21:23:31.265Z,100077.06
2023-01-13T21:26:00.381Z,100087.03
2023-01-13T21:28:26.718Z,100085.09
2023-01-13T21:33:47.075Z,100084.19
2023-01-13T21:36:13.379Z,100090.16
2023-01-13T21:38:39.744Z,100089.72
2023-01-13T21:41:06.244Z,100096.88
2023-01-13T21:43:35.347Z,100087.31
2023-01-13T21:48:50.953Z,100107.59
2023-01-13T21:51:17.423Z,100098.47
2023-01-13T21:53:46.533Z,100103.63
2023-01-13T21:56:12.826Z,100091.25
2023-01-13T21:58:39.131Z,100096.03
2023-01-13T22:01:05.557Z,100113.13
2023-01-13T22:03:34.721Z,100109.13
2023-01-13T22:06:04.627Z,100111.09
2023-01-13T22:08:34.178Z,100111.47
2023-01-13T22:11:00.584Z,100108.69
2023-01-13T22:13:26.982Z,100115.84
2023-01-13T22:15:53.340Z,100106.66
2023-01-13T22:18:19.706Z,100110.22
2023-01-13T22:20:46.051Z,100106.66
2023-01-13T22:23:12.389Z,100119.38
2023-01-13T22:25:39.028Z,100114.13
2023-01-13T22:28:05.548Z,100118.13
2023-01-13T22:30:31.902Z,100119.72
2023-01-13T22:32:59.137Z,100118.06
2023-01-13T22:35:26.499Z,100125.28
2023-01-13T22:37:53.731Z,100132.41
2023-01-13T22:40:20.932Z,100134.47
2023-01-13T22:42:47.300Z,100137.25
2023-01-13T22:45:13.643Z,100143.97
2023-01-13T22:47:41.000Z,100137.97
2023-01-13T22:50:07.340Z,100140.25
2023-01-13T22:52:34.545Z,100143.91
2023-01-13T22:55:00.966Z,100143.28
2023-01-13T22:57:27.430Z,100140.75
2023-01-13T22:59:53.890Z,100137.44
2023-01-13T23:02:21.145Z,100153.47
2023-01-13T23:04:47.594Z,100156.75
2023-01-13T23:07:17.367Z,100156.47
2023-01-13T23:09:43.804Z,100152.09
2023-01-13T23:12:10.228Z,100152.97
2023-01-13T23:14:36.652Z,100163.31
2023-01-13T23:17:03.093Z,100159.41
2023-01-13T23:22:23.490Z,100163.78
2023-01-13T23:24:49.866Z,100163.84
2023-01-13T23:27:16.268Z,100168.22
2023-01-13T23:29:42.617Z,100163.13
2023-01-13T23:32:09.831Z,100157.56
2023-01-13T23:37:20.342Z,100161.56
2023-01-13T23:39:46.691Z,100162.34
2023-01-13T23:42:13.023Z,100158.03
2023-01-13T23:44:39.374Z,100155.31
2023-01-13T23:47:05.735Z,100158.53
2023-01-13T23:52:26.018Z,100161.66
2023-01-13T23:54:52.432Z,100161.66
2023-01-13T23:57:18.812Z,100166.06
2023-01-13T23:59:45.149Z,100169.25
